Airport View

Enter AWOS ICAO identifier for current METAR.

ex. KFNL

KBJC 041345Z 35005KT 10SM SCT080 19/12 A3017

4 Jul 2020 14:06

Frequency: 126.250

Phone: 720-887-8067

Other Area AWOS: KEIK - KBDU - KLMO - KBKF

TAF KBJC 041138Z 0412/0512 32006KT P6SM FEW150 SCT220 FM041700 10008KT P6SM FEW080 SCT140 FM041900 05012KT P6SM -SHRA SCT080 BKN140 TEMPO 0420/0424 VRB25G40KT TSRA BKN070CB FM050200 15012KT P6SM VCSH SCT050 BKN080 FM050400 26006KT P6SM FEW080 SCT180